Time;durP1;ratioP1;P1;durP2;ratioP2;P2;SDS_P1;SDS_P2;PMS_P1;PMS_P2;Temp;Humidity;BMP_temperature;BMP_pressure;BME280_temperature;BME280_humidity;BME280_pressure;Samples;Min_cycle;Max_cycle;Signal;HPM_P1;HPM_P2
2021/01/11 00:01:06;;;;;;;;;;;;;;;4.52;100.00;99971.06;5055391;28;19990;-80
2021/01/11 00:03:32;;;;;;;;;;;;;;;4.50;100.00;99967.84;5038903;28;19983;-81
2021/01/11 00:06:12;;;;;;;;;;;;;;;4.47;100.00;99968.56;5039448;28;19931;-80
2021/01/11 00:08:47;;;;;;;;;;;;;;;4.50;100.00;99970.59;5055646;28;20009;-80
2021/01/11 00:11:20;;;;;;;;;;;;;;;4.49;100.00;99949.63;5055429;28;19925;-80
2021/01/11 00:13:49;;;;;;;;;;;;;;;4.47;100.00;99954.72;5022461;28;19929;-81
2021/01/11 00:16:15;;;;;;;;;;;;;;;4.52;100.00;99953.63;5055189;28;19925;-80
2021/01/11 00:18:42;;;;;;;;;;;;;;;4.49;100.00;99962.66;5038778;28;19925;-81
2021/01/11 00:21:13;;;;;;;;;;;;;;;4.56;100.00;99947.00;5056689;28;19925;-80
2021/01/11 00:23:39;;;;;;;;;;;;;;;4.57;100.00;99950.59;5054983;28;20381;-81
2021/01/11 00:26:08;;;;;;;;;;;;;;;4.57;100.00;99945.88;5055497;28;19928;-80
2021/01/11 00:28:34;;;;;;;;;;;;;;;4.56;100.00;99946.22;5021971;28;19924;-81
2021/01/11 00:31:01;;;;;;;;;;;;;;;4.54;100.00;99949.38;5056283;28;19924;-80
2021/01/11 00:33:28;;;;;;;;;;;;;;;4.52;100.00;99951.69;5038122;28;19924;-80
2021/01/11 00:35:56;;;;;;;;;;;;;;;4.51;100.00;99952.84;5055015;28;20257;-80
2021/01/11 00:38:25;;;;;;;;;;;;;;;4.50;100.00;99964.28;5055871;28;19925;-80
2021/01/11 00:40:51;;;;;;;;;;;;;;;4.51;100.00;99955.63;5056093;28;19925;-80
2021/01/11 00:43:18;;;;;;;;;;;;;;;4.50;100.00;99954.00;5056157;28;19931;-80
2021/01/11 00:45:45;;;;;;;;;;;;;;;4.52;100.00;99968.28;5055678;28;19924;-81
2021/01/11 00:48:11;;;;;;;;;;;;;;;4.51;100.00;99955.63;5054362;28;19927;-80
2021/01/11 00:50:38;;;;;;;;;;;;;;;4.51;100.00;99960.34;5054983;28;19932;-80
2021/01/11 00:53:04;;;;;;;;;;;;;;;4.53;100.00;99969.88;5037648;28;19928;-80
2021/01/11 00:55:31;;;;;;;;;;;;;;;4.56;100.00;99984.97;5053956;28;19929;-80
2021/01/11 00:58:03;;;;;;;;;;;;;;;4.59;100.00;99968.44;5054730;28;19931;-80
2021/01/11 01:00:36;;;;;;;;;;;;;;;4.58;100.00;99966.03;5055582;28;20031;-80
2021/01/11 01:03:19;;;;;;;;;;;;;;;4.60;100.00;99980.31;5023957;28;19928;-80
2021/01/11 01:05:45;;;;;;;;;;;;;;;4.59;100.00;99987.81;5037446;28;19932;-80
2021/01/11 01:08:12;;;;;;;;;;;;;;;4.59;100.00;99996.13;5037380;28;19951;-81
2021/01/11 01:10:38;;;;;;;;;;;;;;;4.58;100.00;99999.25;5037669;28;19975;-80
2021/01/11 01:13:05;;;;;;;;;;;;;;;4.58;100.00;100011.13;5055278;28;19925;-80
2021/01/11 01:15:31;;;;;;;;;;;;;;;4.61;100.00;100017.91;5054142;28;19932;-80
2021/01/11 01:17:57;;;;;;;;;;;;;;;4.56;100.00;100027.28;5054254;28;19924;-80
2021/01/11 01:20:24;;;;;;;;;;;;;;;4.54;100.00;100021.31;5054012;28;19925;-80
2021/01/11 01:22:51;;;;;;;;;;;;;;;4.55;100.00;100030.41;5020595;28;19929;-80
2021/01/11 01:25:17;;;;;;;;;;;;;;;4.53;100.00;100039.06;5055264;28;19924;-81
2021/01/11 01:27:44;;;;;;;;;;;;;;;4.57;100.00;100051.06;5054171;28;19931;-80
2021/01/11 01:30:11;;;;;;;;;;;;;;;4.56;100.00;100057.72;5053539;28;19928;-80
2021/01/11 01:32:38;;;;;;;;;;;;;;;4.57;100.00;100066.84;5053829;28;19925;-80
2021/01/11 01:35:07;;;;;;;;;;;;;;;4.59;100.00;100084.69;5037270;28;19925;-80
2021/01/11 01:37:34;;;;;;;;;;;;;;;4.56;100.00;100085.41;5037193;28;19925;-80
2021/01/11 01:40:00;;;;;;;;;;;;;;;4.58;100.00;100101.66;5053701;28;19928;-80
2021/01/11 01:42:27;;;;;;;;;;;;;;;4.58;100.00;100099.72;5053665;28;19952;-80
2021/01/11 01:44:53;;;;;;;;;;;;;;;4.55;100.00;100117.03;5037058;28;19929;-80
2021/01/11 01:47:20;;;;;;;;;;;;;;;4.55;100.00;100130.88;5053441;28;19925;-80
2021/01/11 01:49:47;;;;;;;;;;;;;;;4.55;100.00;100143.91;5036485;28;19924;-80
2021/01/11 01:52:14;;;;;;;;;;;;;;;4.53;100.00;100157.31;5054555;28;19931;-80
2021/01/11 01:54:40;;;;;;;;;;;;;;;4.55;100.00;100155.78;5054796;28;20015;-80
2021/01/11 01:57:08;;;;;;;;;;;;;;;4.56;100.00;100157.38;5053305;28;20379;-80
2021/01/11 01:59:34;;;;;;;;;;;;;;;4.57;100.00;100186.69;5053491;28;19924;-81
2021/01/11 02:02:02;;;;;;;;;;;;;;;4.55;100.00;100204.78;5036968;28;19936;-80
2021/01/11 02:04:29;;;;;;;;;;;;;;;4.53;100.00;100209.91;5052928;28;19929;-80
2021/01/11 02:06:58;;;;;;;;;;;;;;;4.51;100.00;100232.41;5019506;28;19924;-80
2021/01/11 02:09:37;;;;;;;;;;;;;;;4.49;100.00;100243.00;5053128;28;19925;-81
2021/01/11 02:12:13;;;;;;;;;;;;;;;4.47;100.00;100266.69;5037244;28;19925;-80
2021/01/11 02:14:48;;;;;;;;;;;;;;;4.47;100.00;100275.78;5036529;28;20500;-80
2021/01/11 02:17:28;;;;;;;;;;;;;;;4.47;100.00;100297.91;5053572;28;20024;-80
2021/01/11 02:19:55;;;;;;;;;;;;;;;4.45;100.00;100319.63;5052919;28;20383;-80
2021/01/11 02:22:24;;;;;;;;;;;;;;;4.48;100.00;100338.28;5054391;28;19932;-80
2021/01/11 02:25:02;;;;;;;;;;;;;;;4.54;100.00;100360.97;5054235;28;19936;-80
2021/01/11 02:27:38;;;;;;;;;;;;;;;4.55;100.00;100365.34;5036690;28;19925;-80
2021/01/11 02:30:04;;;;;;;;;;;;;;;4.55;100.00;100380.00;5053212;28;19925;-81
2021/01/11 02:32:30;;;;;;;;;;;;;;;4.58;100.00;100392.31;5053417;28;19932;-80
2021/01/11 02:34:59;;;;;;;;;;;;;;;4.55;100.00;100404.91;5052662;28;19924;-80
2021/01/11 02:37:26;;;;;;;;;;;;;;;4.55;100.00;100410.44;5052852;28;20368;-80
2021/01/11 02:39:53;;;;;;;;;;;;;;;4.53;100.00;100421.06;5054477;28;19925;-80
2021/01/11 02:42:19;;;;;;;;;;;;;;;4.51;100.00;100423.41;5036271;28;20024;-81
2021/01/11 02:44:48;;;;;;;;;;;;;;;4.54;100.00;100427.41;5036238;28;19925;-80
2021/01/11 02:47:20;;;;;;;;;;;;;;;4.56;100.00;100412.06;5053284;28;20002;-80
2021/01/11 02:49:50;;;;;;;;;;;;;;;4.60;100.00;100424.06;5052406;28;19925;-80
2021/01/11 02:52:16;;;;;;;;;;;;;;;4.60;100.00;100424.06;5052871;28;20391;-80
2021/01/11 02:54:50;;;;;;;;;;;;;;;4.61;100.00;100419.31;5052849;28;19932;-80
2021/01/11 02:57:31;;;;;;;;;;;;;;;4.59;100.00;100425.19;5053225;28;19925;-80
2021/01/11 03:00:00;;;;;;;;;;;;;;;4.60;100.00;100423.25;5052947;28;19928;-80
2021/01/11 03:02:27;;;;;;;;;;;;;;;4.65;100.00;100442.38;5052738;28;19974;-80
2021/01/11 03:04:54;;;;;;;;;;;;;;;4.68;100.00;100449.97;5035794;28;19929;-80
2021/01/11 03:07:21;;;;;;;;;;;;;;;4.60;100.00;100467.53;5036202;28;19936;-80
2021/01/11 03:09:48;;;;;;;;;;;;;;;4.53;100.00;100470.88;5053844;28;19956;-81
2021/01/11 03:12:14;;;;;;;;;;;;;;;4.52;100.00;100477.59;5053096;28;20364;-80
2021/01/11 03:14:41;;;;;;;;;;;;;;;4.55;100.00;100487.97;5052589;28;19933;-80
2021/01/11 03:17:07;;;;;;;;;;;;;;;4.54;100.00;100491.91;5053538;28;19932;-80
2021/01/11 03:19:34;;;;;;;;;;;;;;;4.49;100.00;100492.13;5022958;28;19925;-80
2021/01/11 03:22:00;;;;;;;;;;;;;;;4.55;100.00;100504.56;5039884;28;20372;-80
2021/01/11 03:24:27;;;;;;;;;;;;;;;4.55;100.00;100514.81;5040052;28;19953;-80
2021/01/11 03:26:57;;;;;;;;;;;;;;;4.56;100.00;100527.53;5057256;28;20344;-80
2021/01/11 03:29:23;;;;;;;;;;;;;;;4.52;100.00;100510.81;5056137;28;19928;-80
2021/01/11 03:31:49;;;;;;;;;;;;;;;4.52;100.00;100510.81;5055867;28;19931;-80
2021/01/11 03:34:16;;;;;;;;;;;;;;;4.58;100.00;100503.06;5056114;28;19924;-80
2021/01/11 03:36:45;;;;;;;;;;;;;;;4.57;100.00;100471.00;5039327;28;20291;-80
2021/01/11 03:39:12;;;;;;;;;;;;;;;4.52;100.00;100411.16;5057220;28;19970;-80
2021/01/11 03:41:39;;;;;;;;;;;;;;;4.56;100.00;100358.66;5057283;28;19979;-80
2021/01/11 03:44:06;;;;;;;;;;;;;;;4.54;100.00;100303.66;5055765;28;19924;-79
2021/01/11 03:46:33;;;;;;;;;;;;;;;4.55;100.00;100263.75;5055613;28;19925;-79
2021/01/11 03:48:59;;;;;;;;;;;;;;;4.51;100.00;100212.22;5055803;28;19932;-80
2021/01/11 03:51:26;;;;;;;;;;;;;;;4.56;100.00;100174.00;5055819;28;19925;-80
2021/01/11 03:53:52;;;;;;;;;;;;;;;4.53;100.00;100113.81;5055645;28;19925;-80
2021/01/11 03:56:20;;;;;;;;;;;;;;;4.56;100.00;100082.63;5056828;28;19925;-80
2021/01/11 03:58:46;;;;;;;;;;;;;;;4.62;100.00;100061.81;5039510;28;19924;-80
2021/01/11 04:01:14;;;;;;;;;;;;;;;4.61;100.00;100027.00;5056619;28;19925;-80
2021/01/11 04:03:41;;;;;;;;;;;;;;;4.59;100.00;100023.78;5055147;28;19929;-80
2021/01/11 04:06:07;;;;;;;;;;;;;;;4.58;100.00;99991.75;5039179;28;19924;-79
2021/01/11 04:08:34;;;;;;;;;;;;;;;4.56;100.00;99976.69;5055415;28;19947;-80
2021/01/11 04:11:01;;;;;;;;;;;;;;;4.53;100.00;99964.34;5055564;28;19951;-79
2021/01/11 04:13:27;;;;;;;;;;;;;;;4.54;100.00;99943.81;5055444;28;19931;-80
2021/01/11 04:15:57;;;;;;;;;;;;;;;4.55;100.00;99928.81;5056513;28;19929;-78
2021/01/11 04:18:23;;;;;;;;;;;;;;;4.53;100.00;99914.53;5056335;28;19925;-79
2021/01/11 04:20:50;;;;;;;;;;;;;;;4.56;100.00;99897.19;5055424;28;19934;-79
2021/01/11 04:23:16;;;;;;;;;;;;;;;4.53;100.00;99886.06;5055083;28;19925;-79
2021/01/11 04:25:43;;;;;;;;;;;;;;;4.56;100.00;99869.50;5038823;28;19925;-79
2021/01/11 04:28:09;;;;;;;;;;;;;;;4.62;100.00;99878.34;5056307;28;20078;-79
2021/01/11 04:30:36;;;;;;;;;;;;;;;4.59;100.00;99859.69;5053785;28;19925;-80
2021/01/11 04:33:02;;;;;;;;;;;;;;;4.62;100.00;99848.69;5056495;28;19932;-80
2021/01/11 04:35:29;;;;;;;;;;;;;;;4.63;100.00;99830.91;5054967;28;19949;-79
2021/01/11 04:37:56;;;;;;;;;;;;;;;4.61;100.00;99811.09;5056451;28;19925;-79
2021/01/11 04:40:24;;;;;;;;;;;;;;;4.64;100.00;99804.03;5038422;28;19929;-79
2021/01/11 04:42:54;;;;;;;;;;;;;;;4.64;100.00;99792.94;5038140;28;19947;-79
2021/01/11 04:45:21;;;;;;;;;;;;;;;4.63;100.00;99781.09;5055918;28;19929;-79
2021/01/11 04:47:55;;;;;;;;;;;;;;;4.67;100.00;99779.19;5038290;28;20012;-80
2021/01/11 04:50:22;;;;;;;;;;;;;;;4.65;100.00;99756.59;5055968;28;20288;-79
2021/01/11 04:52:49;;;;;;;;;;;;;;;4.59;100.00;99743.44;5021398;28;19924;-80
2021/01/11 04:55:15;;;;;;;;;;;;;;;4.62;100.00;99742.72;5054597;28;19939;-80
2021/01/11 04:58:08;;;;;;;;;;;;;;;4.63;100.00;99736.81;5054797;28;19974;-80
2021/01/11 05:00:36;;;;;;;;;;;;;;;4.57;100.00;99732.75;5053630;28;19932;-80
2021/01/11 05:03:04;;;;;;;;;;;;;;;4.55;100.00;99718.47;5054556;28;19925;-80
2021/01/11 05:05:31;;;;;;;;;;;;;;;4.57;100.00;99731.94;5054353;28;19932;-79
2021/01/11 05:07:58;;;;;;;;;;;;;;;4.52;100.00;99730.28;5054553;28;19956;-80
2021/01/11 05:10:26;;;;;;;;;;;;;;;4.50;100.00;99721.53;5054432;28;20317;-80
2021/01/11 05:12:56;;;;;;;;;;;;;;;4.54;100.00;99727.94;5055556;28;19950;-80
2021/01/11 05:15:23;;;;;;;;;;;;;;;4.53;100.00;99742.16;5054259;28;19924;-80
2021/01/11 05:17:50;;;;;;;;;;;;;;;4.51;100.00;99725.09;5055575;28;19932;-80
2021/01/11 05:20:31;;;;;;;;;;;;;;;4.46;100.00;99717.91;5054270;28;20430;-80
2021/01/11 05:22:58;;;;;;;;;;;;;;;4.43;100.00;99729.69;5054234;28;19993;-80
2021/01/11 05:25:28;;;;;;;;;;;;;;;4.45;100.00;99732.09;5054078;28;19980;-79
2021/01/11 05:28:08;;;;;;;;;;;;;;;4.41;100.00;99726.50;5037242;28;20261;-79
2021/01/11 05:30:36;;;;;;;;;;;;;;;4.41;100.00;99726.50;5037311;28;19925;-79
2021/01/11 05:33:05;;;;;;;;;;;;;;;4.47;100.00;99738.88;5053909;28;19956;-80
2021/01/11 05:35:32;;;;;;;;;;;;;;;4.46;100.00;99733.69;5055017;28;20487;-79
2021/01/11 05:37:59;;;;;;;;;;;;;;;4.42;100.00;99730.06;5037309;28;20283;-79
2021/01/11 05:40:27;;;;;;;;;;;;;;;4.40;100.00;99733.22;5037339;28;19925;-79
2021/01/11 05:42:58;;;;;;;;;;;;;;;4.40;100.00;99726.88;5020504;28;20253;-79
2021/01/11 05:45:28;;;;;;;;;;;;;;;4.36;100.00;99721.25;5053664;28;19925;-80
2021/01/11 05:47:55;;;;;;;;;;;;;;;4.31;100.00;99729.88;5053785;28;19925;-79
2021/01/11 05:50:22;;;;;;;;;;;;;;;4.26;100.00;99724.63;5053428;28;19925;-80
2021/01/11 05:52:49;;;;;;;;;;;;;;;4.26;100.00;99732.13;5053411;28;20352;-80
2021/01/11 05:55:19;;;;;;;;;;;;;;;4.20;100.00;99731.63;5020363;28;19972;-79
2021/01/11 05:57:54;;;;;;;;;;;;;;;4.20;100.00;99734.38;5036848;28;19932;-79
2021/01/11 06:00:22;;;;;;;;;;;;;;;4.17;100.00;99737.88;5054680;28;19925;-79
2021/01/11 06:02:49;;;;;;;;;;;;;;;4.14;100.00;99752.44;5020470;28;20438;-79
2021/01/11 06:05:17;;;;;;;;;;;;;;;4.09;100.00;99738.91;5053265;28;19983;-80
2021/01/11 06:08:09;;;;;;;;;;;;;;;4.08;100.00;99740.06;5036911;28;19974;-80
2021/01/11 06:10:36;;;;;;;;;;;;;;;4.04;100.00;99747.50;5052863;28;19925;-80
2021/01/11 06:13:06;;;;;;;;;;;;;;;4.04;100.00;99761.34;5036707;28;19925;-80
2021/01/11 06:15:33;;;;;;;;;;;;;;;4.00;100.00;99773.47;5036861;28;20332;-79
2021/01/11 06:17:59;;;;;;;;;;;;;;;4.01;100.00;99773.13;5053183;28;20280;-80
2021/01/11 06:20:27;;;;;;;;;;;;;;;4.00;100.00;99781.78;5036736;28;19979;-80
2021/01/11 06:22:54;;;;;;;;;;;;;;;3.95;100.00;99798.66;5053194;28;19932;-79
2021/01/11 06:25:31;;;;;;;;;;;;;;;3.91;100.00;99815.16;5036383;28;19990;-80
2021/01/11 06:28:08;;;;;;;;;;;;;;;3.92;100.00;99833.38;5053173;28;20372;-79
2021/01/11 06:30:34;;;;;;;;;;;;;;;3.97;100.00;99846.88;5054154;28;19924;-79
2021/01/11 06:33:05;;;;;;;;;;;;;;;3.96;100.00;99859.13;5054082;28;19960;-79
2021/01/11 06:35:32;;;;;;;;;;;;;;;3.97;100.00;99857.94;5053058;28;19929;-80
2021/01/11 06:38:06;;;;;;;;;;;;;;;3.98;100.00;99873.41;5052922;28;19925;-79
2021/01/11 06:40:33;;;;;;;;;;;;;;;3.99;100.00;99877.75;5052734;28;19929;-79
2021/01/11 06:43:00;;;;;;;;;;;;;;;3.99;100.00;99899.88;5052697;28;19932;-80
2021/01/11 06:45:39;;;;;;;;;;;;;;;3.98;100.00;99884.47;5052739;28;19925;-80
2021/01/11 06:48:07;;;;;;;;;;;;;;;3.98;100.00;99898.28;5019810;28;19925;-80
2021/01/11 06:50:33;;;;;;;;;;;;;;;4.00;100.00;99898.69;5052599;28;19986;-81
2021/01/11 06:53:01;;;;;;;;;;;;;;;4.01;100.00;99908.63;5054344;28;20498;-89
2021/01/11 06:55:28;;;;;;;;;;;;;;;3.99;100.00;99908.16;5023240;28;19924;-77
2021/01/11 06:57:56;;;;;;;;;;;;;;;4.00;100.00;99909.75;5046400;28;19929;-78
2021/01/11 07:00:30;;;;;;;;;;;;;;;3.92;100.00;99901.69;5051527;28;19925;-78
2021/01/11 07:02:57;;;;;;;;;;;;;;;3.92;100.00;99908.03;5052747;28;20291;-78
2021/01/11 07:05:33;;;;;;;;;;;;;;;3.93;100.00;99909.63;5019526;28;19932;-78
2021/01/11 07:08:07;;;;;;;;;;;;;;;3.88;100.00;99923.69;5035607;28;19931;-78
2021/01/11 07:10:37;;;;;;;;;;;;;;;3.91;100.00;99930.50;5018508;28;19924;-77
2021/01/11 07:13:16;;;;;;;;;;;;;;;3.86;100.00;99931.56;5052905;28;19950;-78
2021/01/11 07:16:03;;;;;;;;;;;;;;;3.91;100.00;99936.81;5035124;28;20438;-78
2021/01/11 07:18:39;;;;;;;;;;;;;;;3.86;100.00;99945.41;5031279;28;20511;-75
2021/01/11 07:21:17;;;;;;;;;;;;;;;3.90;100.00;99946.28;5053349;28;19967;-78
2021/01/11 07:23:44;;;;;;;;;;;;;;;3.86;100.00;99950.13;5052462;28;19925;-78
2021/01/11 07:26:16;;;;;;;;;;;;;;;3.87;100.00;99952.53;5052205;28;20051;-79
2021/01/11 07:28:57;;;;;;;;;;;;;;;3.89;100.00;99961.28;5055717;28;19932;-79
2021/01/11 07:31:28;;;;;;;;;;;;;;;3.88;100.00;99965.19;5038597;28;19925;-79
2021/01/11 07:33:58;;;;;;;;;;;;;;;3.91;100.00;99981.06;5039394;28;19974;-78
2021/01/11 07:36:25;;;;;;;;;;;;;;;3.92;100.00;99985.44;5055741;28;20376;-78
2021/01/11 07:39:04;;;;;;;;;;;;;;;3.95;100.00;99990.25;5056614;28;19928;-78
2021/01/11 07:41:31;;;;;;;;;;;;;;;4.00;100.00;100003.00;5055838;28;19929;-80
2021/01/11 07:44:15;;;;;;;;;;;;;;;4.03;100.00;100005.06;5056875;28;19928;-80
2021/01/11 07:46:43;;;;;;;;;;;;;;;4.04;100.00;100010.22;5056876;28;20019;-79
2021/01/11 07:49:11;;;;;;;;;;;;;;;4.03;100.00;100000.31;5055581;28;19932;-78
2021/01/11 07:51:37;;;;;;;;;;;;;;;4.05;100.00;100017.34;5055328;28;19925;-79
2021/01/11 07:54:08;;;;;;;;;;;;;;;4.03;100.00;100003.06;5038757;28;19924;-77
2021/01/11 07:56:34;;;;;;;;;;;;;;;4.03;100.00;100000.31;5038792;28;19974;-78
2021/01/11 07:59:04;;;;;;;;;;;;;;;4.05;100.00;99991.66;5055074;28;19925;-78
2021/01/11 08:01:30;;;;;;;;;;;;;;;4.07;100.00;100001.22;5056251;28;20407;-78
2021/01/11 08:03:57;;;;;;;;;;;;;;;4.11;100.00;100009.59;5054346;28;19975;-77
2021/01/11 08:06:23;;;;;;;;;;;;;;;4.12;100.00;100002.91;5054271;28;20019;-77
2021/01/11 08:08:52;;;;;;;;;;;;;;;4.13;100.00;100007.28;5054751;28;19963;-78
2021/01/11 08:11:20;;;;;;;;;;;;;;;4.14;100.00;100011.63;5038236;28;20296;-78
2021/01/11 08:13:46;;;;;;;;;;;;;;;4.13;100.00;100005.31;5038346;28;19936;-78
2021/01/11 08:16:13;;;;;;;;;;;;;;;4.13;100.00;100008.09;5054838;28;19925;-78
2021/01/11 08:18:40;;;;;;;;;;;;;;;4.14;100.00;100011.63;5056052;28;19924;-78
2021/01/11 08:21:07;;;;;;;;;;;;;;;4.13;100.00;100010.03;5055595;28;19929;-78
2021/01/11 08:23:33;;;;;;;;;;;;;;;4.12;100.00;99997.38;5055918;28;20358;-78
2021/01/11 08:26:02;;;;;;;;;;;;;;;4.08;100.00;100005.59;5054672;28;19925;-77
2021/01/11 08:28:30;;;;;;;;;;;;;;;4.08;100.00;100007.53;5055766;28;19925;-77
2021/01/11 08:30:58;;;;;;;;;;;;;;;4.11;100.00;100001.28;5055578;28;19925;-77
2021/01/11 08:33:25;;;;;;;;;;;;;;;4.12;100.00;100002.91;5037984;28;19951;-77
2021/01/11 08:35:51;;;;;;;;;;;;;;;4.11;100.00;100007.63;5054175;28;20023;-76
2021/01/11 08:38:18;;;;;;;;;;;;;;;4.14;100.00;100011.63;5037950;28;19932;-77
2021/01/11 08:40:49;;;;;;;;;;;;;;;4.13;100.00;100021.91;5054226;28;19929;-77
2021/01/11 08:43:20;;;;;;;;;;;;;;;4.14;100.00;100031.81;5055657;28;20015;-77
2021/01/11 08:45:51;;;;;;;;;;;;;;;4.12;100.00;100034.13;5021141;28;20406;-77
2021/01/11 08:48:23;;;;;;;;;;;;;;;4.14;100.00;100042.88;5055567;28;19924;-77
2021/01/11 08:50:50;;;;;;;;;;;;;;;4.20;100.00;100037.84;5037177;28;19948;-77
2021/01/11 08:53:20;;;;;;;;;;;;;;;4.20;100.00;100055.28;5037504;28;19929;-77
2021/01/11 08:55:53;;;;;;;;;;;;;;;4.24;100.00;100047.84;5054036;28;19925;-77
2021/01/11 08:58:19;;;;;;;;;;;;;;;4.24;100.00;100061.69;5055373;28;19932;-77
2021/01/11 09:00:46;;;;;;;;;;;;;;;4.24;100.00;100056.16;5055169;28;19932;-77
2021/01/11 09:03:12;;;;;;;;;;;;;;;4.26;100.00;100066.88;5053905;28;19925;-77
2021/01/11 09:05:39;;;;;;;;;;;;;;;4.24;100.00;100061.69;5053443;28;19979;-77
2021/01/11 09:08:19;;;;;;;;;;;;;;;4.26;100.00;100064.91;5055229;28;19925;-77
2021/01/11 09:10:46;;;;;;;;;;;;;;;4.25;100.00;100068.84;5037334;28;20402;-77
2021/01/11 09:13:17;;;;;;;;;;;;;;;4.25;100.00;100071.63;5020643;28;20343;-77
2021/01/11 09:15:44;;;;;;;;;;;;;;;4.29;100.00;100080.78;5036908;28;20275;-77
2021/01/11 09:18:11;;;;;;;;;;;;;;;4.32;100.00;100080.06;5037190;28;19971;-77
2021/01/11 09:20:39;;;;;;;;;;;;;;;4.31;100.00;100078.47;5020235;28;20357;-77
2021/01/11 09:23:05;;;;;;;;;;;;;;;4.33;100.00;100078.91;5036991;28;19929;-77
2021/01/11 09:25:32;;;;;;;;;;;;;;;4.36;100.00;100100.31;5053449;28;20406;-78
2021/01/11 09:28:00;;;;;;;;;;;;;;;4.36;100.00;100097.56;5037269;28;19924;-80
2021/01/11 09:30:27;;;;;;;;;;;;;;;4.39;100.00;100096.84;5054776;28;19925;-77
2021/01/11 09:32:54;;;;;;;;;;;;;;;4.41;100.00;100108.38;5054488;28;19936;-79
2021/01/11 09:35:21;;;;;;;;;;;;;;;4.46;100.00;100119.19;5053196;28;20011;-79
2021/01/11 09:37:48;;;;;;;;;;;;;;;4.46;100.00;100127.47;5053231;28;20364;-78
2021/01/11 09:40:15;;;;;;;;;;;;;;;4.45;100.00;100139.72;5054597;28;20375;-81
2021/01/11 09:42:42;;;;;;;;;;;;;;;4.42;100.00;100129.38;5046735;28;19936;-79
2021/01/11 09:45:09;;;;;;;;;;;;;;;4.44;100.00;100137.31;5049106;28;19925;-79
2021/01/11 09:51:17;;;;;;;;;;;;;;;4.45;100.00;100156.31;5041142;28;19928;-78
2021/01/11 09:53:44;;;;;;;;;;;;;;;4.49;100.00;100173.81;5015746;28;19975;-77
2021/01/11 09:56:10;;;;;;;;;;;;;;;4.47;100.00;100183.66;5030212;28;19925;-77
2021/01/11 09:58:37;;;;;;;;;;;;;;;4.46;100.00;100201.41;5049216;28;20015;-77
2021/01/11 10:01:03;;;;;;;;;;;;;;;4.45;100.00;100211.69;5030606;28;19925;-78
2021/01/11 10:03:30;;;;;;;;;;;;;;;4.46;100.00;100243.72;5048413;28;19952;-78
2021/01/11 10:05:57;;;;;;;;;;;;;;;4.49;100.00;100253.28;5048422;28;20019;-77
2021/01/11 10:08:25;;;;;;;;;;;;;;;4.52;100.00;100271.94;5048647;28;20468;-78
2021/01/11 10:10:51;;;;;;;;;;;;;;;4.50;100.00;100313.81;5048987;28;19928;-78
2021/01/11 10:13:17;;;;;;;;;;;;;;;4.51;100.00;100356.97;5049610;28;19932;-78
2021/01/11 10:15:44;;;;;;;;;;;;;;;4.57;100.00;100385.19;5048675;28;20015;-79
2021/01/11 10:18:10;;;;;;;;;;;;;;;4.55;100.00;100420.72;5047569;28;20004;-78
2021/01/11 10:20:37;;;;;;;;;;;;;;;4.60;100.00;100468.34;5030628;28;19929;-78
2021/01/11 10:23:03;;;;;;;;;;;;;;;4.61;100.00;100511.47;5030947;28;19955;-79
2021/01/11 10:25:31;;;;;;;;;;;;;;;4.63;100.00;100528.56;5049522;28;19924;-78
2021/01/11 10:27:58;;;;;;;;;;;;;;;4.69;100.00;100531.88;5048869;28;19925;-77
2021/01/11 10:30:25;;;;;;;;;;;;;;;4.74;100.00;100524.13;5031927;28;19979;-78
2021/01/11 10:32:52;;;;;;;;;;;;;;;4.86;100.00;100520.53;5049172;28;19929;-77
2021/01/11 10:35:18;;;;;;;;;;;;;;;4.86;100.00;100509.47;5033045;28;19968;-78
2021/01/11 10:37:45;;;;;;;;;;;;;;;4.92;100.00;100496.97;5032013;28;19925;-78
2021/01/11 10:40:11;;;;;;;;;;;;;;;4.90;100.00;100489.03;5030719;28;19925;-80
2021/01/11 10:42:38;;;;;;;;;;;;;;;4.97;100.00;100477.31;5030794;28;20428;-79
2021/01/11 10:45:05;;;;;;;;;;;;;;;4.89;100.00;100473.53;5049199;28;19990;-80
2021/01/11 10:47:31;;;;;;;;;;;;;;;4.90;100.00;100466.88;5047601;28;19933;-77
2021/01/11 10:49:58;;;;;;;;;;;;;;;4.94;100.00;100456.69;5049304;28;19932;-78
2021/01/11 10:52:24;;;;;;;;;;;;;;;4.86;100.00;100435.47;5048811;28;19925;-77
2021/01/11 10:54:51;;;;;;;;;;;;;;;4.91;100.00;100440.75;5048199;28;19944;-77
2021/01/11 10:57:18;;;;;;;;;;;;;;;4.92;100.00;100427.72;5048534;28;19931;-76
2021/01/11 10:59:45;;;;;;;;;;;;;;;4.91;100.00;100418.59;5048463;28;19983;-77
2021/01/11 11:02:12;;;;;;;;;;;;;;;4.91;100.00;100401.97;5046774;28;19936;-77
2021/01/11 11:04:38;;;;;;;;;;;;;;;4.86;100.00;100393.91;5048360;28;20018;-78
2021/01/11 11:07:05;;;;;;;;;;;;;;;4.90;100.00;100383.75;5048747;28;19935;-78
2021/01/11 11:09:31;;;;;;;;;;;;;;;4.89;100.00;100381.34;5015506;28;20022;-78
2021/01/11 11:11:58;;;;;;;;;;;;;;;4.89;100.00;100361.97;5050258;28;20384;-77
2021/01/11 11:14:24;;;;;;;;;;;;;;;4.87;100.00;100354.00;5049641;28;19932;-78
2021/01/11 11:16:53;;;;;;;;;;;;;;;4.90;100.00;100338.63;5048796;28;19924;-80
2021/01/11 11:19:20;;;;;;;;;;;;;;;4.85;100.00;100327.81;5032698;28;19932;-79
2021/01/11 11:21:47;;;;;;;;;;;;;;;4.89;100.00;100315.66;5046089;28;20654;-78
2021/01/11 11:24:15;;;;;;;;;;;;;;;4.85;100.00;100309.25;5041635;28;20024;-79
2021/01/11 11:26:41;;;;;;;;;;;;;;;4.85;100.00;100292.63;5032782;28;19932;-78
2021/01/11 11:29:08;;;;;;;;;;;;;;;4.88;100.00;100272.53;5048552;28;19987;-79
2021/01/11 11:31:39;;;;;;;;;;;;;;;4.91;100.00;100274.56;5048334;28;19925;-79
2021/01/11 11:34:06;;;;;;;;;;;;;;;4.89;100.00;100260.28;5013112;28;19924;-78
2021/01/11 11:36:32;;;;;;;;;;;;;;;4.90;100.00;100250.00;5047315;28;19929;-77
2021/01/11 11:38:59;;;;;;;;;;;;;;;4.91;100.00;100240.53;5049806;28;19925;-78
2021/01/11 11:41:25;;;;;;;;;;;;;;;4.91;100.00;100235.81;5053431;28;19925;-78
2021/01/11 11:43:52;;;;;;;;;;;;;;;4.95;100.00;100220.06;5054909;28;19928;-78
2021/01/11 11:46:18;;;;;;;;;;;;;;;4.91;100.00;100208.09;5054718;28;20315;-78
2021/01/11 11:48:45;;;;;;;;;;;;;;;5.00;100.00;100203.19;5089714;28;20272;-78
2021/01/11 11:51:12;;;;;;;;;;;;;;;4.96;100.00;100205.06;5055523;28;19932;-77
2021/01/11 11:53:39;;;;;;;;;;;;;;;4.97;100.00;100190.03;5055529;28;19932;-78
2021/01/11 11:56:05;;;;;;;;;;;;;;;5.00;100.00;100191.28;5056652;28;19965;-78
2021/01/11 11:58:32;;;;;;;;;;;;;;;5.02;100.00;100164.03;5056780;28;20280;-78
2021/01/11 12:00:59;;;;;;;;;;;;;;;4.98;100.00;100175.03;5056276;28;20268;-78
2021/01/11 12:03:25;;;;;;;;;;;;;;;4.96;100.00;100163.53;5056545;28;20000;-79
2021/01/11 12:05:52;;;;;;;;;;;;;;;4.95;100.00;100148.03;5055150;28;19979;-79
2021/01/11 12:08:19;;;;;;;;;;;;;;;4.95;100.00;100141.72;5056500;28;19974;-78
2021/01/11 12:10:46;;;;;;;;;;;;;;;4.92;100.00;100129.38;5055028;28;19925;-77
2021/01/11 12:13:12;;;;;;;;;;;;;;;4.95;100.00;100117.56;5054863;28;20323;-78
2021/01/11 12:15:39;;;;;;;;;;;;;;;5.02;100.00;100109.44;5055282;28;20329;-78
2021/01/11 12:18:05;;;;;;;;;;;;;;;4.97;100.00;100098.66;5055207;28;20323;-78
2021/01/11 12:20:32;;;;;;;;;;;;;;;5.11;100.00;100090.66;5056270;28;20292;-78
2021/01/11 12:22:58;;;;;;;;;;;;;;;5.08;100.00;100085.84;5054700;28;19942;-77
2021/01/11 12:25:25;;;;;;;;;;;;;;;5.05;100.00;100064.41;5056448;28;19925;-77
2021/01/11 12:27:51;;;;;;;;;;;;;;;5.08;100.00;100062.88;5054458;28;20384;-81
2021/01/11 12:30:18;;;;;;;;;;;;;;;5.10;100.00;100053.00;5054828;28;20257;-77
2021/01/11 12:32:46;;;;;;;;;;;;;;;5.03;100.00;100044.56;5055857;28;20399;-77
2021/01/11 12:35:16;;;;;;;;;;;;;;;5.08;100.00;100035.16;5055960;28;19932;-78
2021/01/11 12:37:43;;;;;;;;;;;;;;;5.05;100.00;100025.63;5054506;28;19924;-76
2021/01/11 12:40:10;;;;;;;;;;;;;;;5.03;100.00;100016.88;5055977;28;19925;-78
2021/01/11 12:42:36;;;;;;;;;;;;;;;5.08;100.00;100021.31;5070923;28;20007;-78
2021/01/11 12:45:03;;;;;;;;;;;;;;;5.09;100.00;100000.75;5055952;28;19925;-79
2021/01/11 12:47:37;;;;;;;;;;;;;;;5.03;100.00;99989.16;5054986;28;19925;-79
2021/01/11 12:50:05;;;;;;;;;;;;;;;5.10;100.00;99977.44;5054375;28;20059;-77